Time;durP1;ratioP1;P1;durP2;ratioP2;P2;SDS_P1;SDS_P2;PMS_P1;PMS_P2;Temp;Humidity;BMP_temperature;BMP_pressure;BME280_temperature;BME280_humidity;BME280_pressure;Samples;Min_cycle;Max_cycle;Signal;HPM_P1;HPM_P2
2023/06/22 00:00:51;;;;;;;16.20;13.57;;;16.80;99.90;;;;;;5042492;28;20090;-81
2023/06/22 00:03:21;;;;;;;15.13;12.35;;;16.70;99.90;;;;;;5044264;28;20033;-80
2023/06/22 00:05:48;;;;;;;16.33;14.52;;;16.60;99.90;;;;;;5041689;28;20041;-80
2023/06/22 00:08:14;;;;;;;20.38;16.45;;;16.50;99.90;;;;;;5044015;28;20085;-80
2023/06/22 00:10:39;;;;;;;18.75;16.30;;;16.50;99.90;;;;;;5047398;28;20084;-80
2023/06/22 00:13:06;;;;;;;17.35;15.63;;;16.50;99.90;;;;;;5049870;28;20064;-80
2023/06/22 00:15:32;;;;;;;18.27;14.75;;;16.50;99.90;;;;;;5046421;28;20037;-80
2023/06/22 00:17:58;;;;;;;18.17;14.73;;;16.50;99.90;;;;;;5042794;28;20095;-81
2023/06/22 00:20:28;;;;;;;19.60;17.05;;;16.60;99.90;;;;;;5045145;28;20190;-81
2023/06/22 00:22:58;;;;;;;22.15;20.05;;;16.60;99.90;;;;;;5043711;28;20059;-80
2023/06/22 00:25:24;;;;;;;15.05;13.85;;;16.50;99.90;;;;;;5044142;28;20044;-81
2023/06/22 00:27:50;;;;;;;14.10;12.45;;;16.40;99.90;;;;;;5045677;28;20112;-81
2023/06/22 00:30:16;;;;;;;62.53;16.98;;;16.30;99.90;;;;;;5046975;28;20037;-80
2023/06/22 00:32:43;;;;;;;15.70;13.95;;;16.20;99.90;;;;;;5043981;28;20132;-80
2023/06/22 00:35:09;;;;;;;17.38;15.88;;;16.20;99.90;;;;;;5042198;28;20136;-80
2023/06/22 00:37:35;;;;;;;17.05;14.82;;;16.00;99.90;;;;;;5046418;28;20123;-80
2023/06/22 00:40:03;;;;;;;16.63;14.93;;;16.00;99.90;;;;;;5042727;28;20045;-80
2023/06/22 00:42:29;;;;;;;16.25;14.85;;;16.00;99.90;;;;;;5044799;28;20084;-80
2023/06/22 00:44:55;;;;;;;16.80;15.40;;;15.90;99.90;;;;;;5044760;28;20040;-80
2023/06/22 00:47:21;;;;;;;18.38;16.40;;;15.90;99.90;;;;;;5043405;28;20446;-80
2023/06/22 00:49:50;;;;;;;20.30;18.60;;;15.90;99.90;;;;;;5046414;28;20077;-80
2023/06/22 00:52:20;;;;;;;20.33;18.42;;;15.90;99.90;;;;;;5044916;28;20048;-81
2023/06/22 00:54:50;;;;;;;20.23;18.58;;;15.70;99.90;;;;;;5043056;28;20660;-80
2023/06/22 00:57:18;;;;;;;21.25;19.35;;;15.60;99.90;;;;;;5047995;28;20076;-80
2023/06/22 00:59:44;;;;;;;20.38;18.52;;;15.60;99.90;;;;;;5044470;28;20063;-81
2023/06/22 01:02:10;;;;;;;16.60;15.00;;;15.60;99.90;;;;;;5042719;28;20598;-81
2023/06/22 01:04:37;;;;;;;18.30;16.58;;;15.60;99.90;;;;;;5044969;28;20128;-81
2023/06/22 01:07:22;;;;;;;22.98;20.50;;;15.60;99.90;;;;;;5044410;28;20551;-81
2023/06/22 01:10:21;;;;;;;22.50;20.17;;;15.70;99.90;;;;;;5042450;28;20049;-80
2023/06/22 01:12:54;;;;;;;24.50;20.67;;;15.60;99.90;;;;;;5044749;28;20443;-80
2023/06/22 01:15:30;;;;;;;21.90;19.25;;;15.60;99.90;;;;;;5042514;28;20049;-80
2023/06/22 01:17:58;;;;;;;26.40;23.55;;;15.50;99.90;;;;;;5046436;28;20059;-80
2023/06/22 01:20:27;;;;;;;27.33;22.92;;;15.50;99.90;;;;;;5047875;28;20096;-81
2023/06/22 01:23:18;;;;;;;27.38;21.33;;;15.30;99.90;;;;;;5050104;28;20041;-80
2023/06/22 01:26:02;;;;;;;20.55;18.02;;;15.20;99.90;;;;;;5047299;28;20053;-80
2023/06/22 01:29:01;;;;;;;17.85;15.93;;;15.10;99.90;;;;;;5046376;28;20045;-81
2023/06/22 01:31:29;;;;;;;16.55;14.88;;;15.10;99.90;;;;;;5046996;28;20033;-80
2023/06/22 01:33:59;;;;;;;18.77;16.63;;;15.20;99.90;;;;;;5044330;28;20088;-81
2023/06/22 01:36:25;;;;;;;21.77;18.25;;;15.20;99.90;;;;;;5047106;28;20140;-80
2023/06/22 01:38:52;;;;;;;20.00;17.80;;;15.30;99.90;;;;;;5044134;28;22014;-80
2023/06/22 01:41:20;;;;;;;23.05;19.92;;;15.40;99.90;;;;;;5045785;28;20855;-80
2023/06/22 01:43:46;;;;;;;27.60;20.77;;;15.40;99.90;;;;;;5042784;28;20041;-79
2023/06/22 01:46:13;;;;;;;23.58;20.38;;;15.50;99.90;;;;;;5045659;28;20108;-80
2023/06/22 01:48:39;;;;;;;24.13;20.27;;;15.50;99.90;;;;;;5047000;28;20046;-80
2023/06/22 01:51:05;;;;;;;29.50;21.27;;;15.50;99.90;;;;;;5044616;28;20391;-80
2023/06/22 01:53:30;;;;;;;24.80;22.25;;;15.50;99.90;;;;;;5044054;28;20052;-80
2023/06/22 01:55:57;;;;;;;34.17;30.88;;;15.40;99.90;;;;;;5044344;28;20048;-80
2023/06/22 01:58:26;;;;;;;36.60;32.25;;;15.30;99.90;;;;;;5045661;28;20064;-80
2023/06/22 02:01:03;;;;;;;34.90;31.58;;;15.20;99.90;;;;;;5042968;28;20044;-80
2023/06/22 02:03:37;;;;;;;27.60;24.77;;;15.10;99.90;;;;;;5046073;28;20183;-80
2023/06/22 02:06:10;;;;;;;22.92;20.75;;;15.10;99.90;;;;;;5050686;28;20623;-81
2023/06/22 02:08:58;;;;;;;19.52;16.92;;;15.20;99.90;;;;;;5047669;28;20120;-81
2023/06/22 02:11:28;;;;;;;23.65;21.45;;;15.20;99.90;;;;;;5066167;28;20048;-81
2023/06/22 02:13:54;;;;;;;22.88;20.63;;;15.30;99.90;;;;;;5049249;28;20123;-81
2023/06/22 02:16:21;;;;;;;21.73;19.77;;;15.30;99.90;;;;;;5047413;28;20432;-80
2023/06/22 02:18:50;;;;;;;20.92;19.02;;;15.20;99.90;;;;;;5046743;28;20049;-80
2023/06/22 02:21:20;;;;;;;34.83;15.77;;;15.10;99.90;;;;;;5047548;28;20063;-80
2023/06/22 02:23:46;;;;;;;191.18;25.25;;;15.10;99.90;;;;;;5048388;28;20113;-81
2023/06/22 02:26:12;;;;;;;16.75;15.35;;;15.10;99.90;;;;;;5043820;28;20163;-81
2023/06/22 02:28:37;;;;;;;21.00;19.20;;;15.00;99.90;;;;;;5046985;28;20157;-80
2023/06/22 02:31:03;;;;;;;40.78;19.33;;;15.00;99.90;;;;;;5047103;28;20506;-81
2023/06/22 02:33:29;;;;;;;112.82;24.85;;;14.90;99.90;;;;;;5045450;28;20056;-81
2023/06/22 02:35:54;;;;;;;19.08;17.50;;;14.80;99.90;;;;;;5048083;28;20037;-80
2023/06/22 02:38:20;;;;;;;65.03;21.38;;;14.80;99.90;;;;;;5045759;28;20037;-81
2023/06/22 02:40:46;;;;;;;28.55;25.65;;;14.80;99.90;;;;;;5046030;28;20056;-80
2023/06/22 02:43:12;;;;;;;28.88;26.25;;;14.80;99.90;;;;;;5046195;28;20040;-81
2023/06/22 02:45:38;;;;;;;28.70;26.30;;;14.80;99.90;;;;;;5048503;28;20037;-80
2023/06/22 02:48:04;;;;;;;32.70;29.85;;;14.60;99.90;;;;;;5045037;28;20042;-80
2023/06/22 02:50:30;;;;;;;34.67;32.08;;;14.60;99.90;;;;;;5047744;28;20045;-81
2023/06/22 02:52:55;;;;;;;39.53;36.03;;;14.50;99.90;;;;;;5045588;28;20050;-81
2023/06/22 02:55:21;;;;;;;29.42;26.77;;;14.40;99.90;;;;;;5048063;28;20044;-80
2023/06/22 02:57:47;;;;;;;20.70;17.00;;;14.40;99.90;;;;;;5047152;28;20124;-81
2023/06/22 03:00:17;;;;;;;18.25;16.40;;;14.40;99.90;;;;;;5045667;28;20078;-80
2023/06/22 03:02:47;;;;;;;16.25;14.63;;;14.50;99.90;;;;;;5046519;28;20050;-81
2023/06/22 03:05:14;;;;;;;17.27;15.57;;;14.60;99.90;;;;;;5045373;28;20033;-81
2023/06/22 03:07:41;;;;;;;20.27;18.23;;;14.60;99.90;;;;;;5044419;28;20025;-80
2023/06/22 03:10:09;;;;;;;25.25;22.73;;;14.70;99.90;;;;;;5044385;28;20175;-80
2023/06/22 03:12:35;;;;;;;23.88;21.48;;;14.70;99.90;;;;;;5043589;28;20054;-81
2023/06/22 03:15:01;;;;;;;25.23;22.60;;;14.80;99.90;;;;;;5045729;28;20116;-80
2023/06/22 03:17:26;;;;;;;26.80;23.67;;;15.00;99.90;;;;;;5042343;28;20056;-81
2023/06/22 03:19:52;;;;;;;29.30;24.63;;;15.10;99.90;;;;;;5042839;28;20087;-80
2023/06/22 03:22:17;;;;;;;31.15;26.50;;;15.00;99.90;;;;;;5043586;28;20064;-81
2023/06/22 03:24:43;;;;;;;30.77;27.60;;;15.10;99.90;;;;;;5043602;28;20040;-81
2023/06/22 03:27:08;;;;;;;68.78;31.63;;;14.90;99.90;;;;;;5042126;28;20041;-81
2023/06/22 03:29:34;;;;;;;38.80;34.65;;;14.80;99.90;;;;;;5042156;28;20098;-80
2023/06/22 03:31:59;;;;;;;36.83;33.08;;;14.70;99.90;;;;;;5046690;28;20167;-81
2023/06/22 03:34:25;;;;;;;30.52;27.60;;;14.60;99.90;;;;;;5048304;28;20517;-81
2023/06/22 03:36:51;;;;;;;22.35;20.33;;;14.60;99.90;;;;;;5045514;28;20398;-81
2023/06/22 03:39:16;;;;;;;21.63;19.65;;;14.60;99.90;;;;;;5047620;28;20124;-81
2023/06/22 03:41:42;;;;;;;21.75;19.83;;;14.60;99.90;;;;;;5042716;28;20636;-81
2023/06/22 03:44:12;;;;;;;19.60;18.00;;;14.60;99.90;;;;;;5044173;28;20045;-81
2023/06/22 03:46:37;;;;;;;73.70;21.65;;;14.60;99.90;;;;;;5045090;28;20037;-81
2023/06/22 03:49:03;;;;;;;20.38;18.48;;;14.60;99.90;;;;;;5044020;28;20037;-80
2023/06/22 03:51:30;;;;;;;22.25;20.15;;;14.70;99.90;;;;;;5042354;28;20073;-81
2023/06/22 03:53:56;;;;;;;46.47;25.38;;;14.70;99.90;;;;;;5044828;28;20033;-81
2023/06/22 03:56:21;;;;;;;105.57;25.75;;;14.80;99.90;;;;;;5046988;28;20038;-81
2023/06/22 03:58:47;;;;;;;264.90;29.33;;;14.90;99.90;;;;;;5042656;28;20120;-79
2023/06/22 04:01:12;;;;;;;97.32;25.38;;;14.90;99.90;;;;;;5044582;28;20045;-81
2023/06/22 04:03:39;;;;;;;107.32;27.40;;;15.00;99.90;;;;;;5039117;28;20045;-81
2023/06/22 04:06:04;;;;;;;39.42;26.48;;;15.00;99.90;;;;;;5037823;28;21126;-79
2023/06/22 04:08:30;;;;;;;24.90;22.50;;;15.10;99.90;;;;;;5036806;28;20082;-81
2023/06/22 04:10:56;;;;;;;24.88;22.35;;;15.30;99.90;;;;;;5040566;28;20044;-81
2023/06/22 04:13:22;;;;;;;26.17;23.17;;;15.40;99.90;;;;;;5040325;28;20037;-81
2023/06/22 04:15:47;;;;;;;29.17;25.58;;;15.50;99.90;;;;;;5039472;28;20056;-79
2023/06/22 04:18:13;;;;;;;26.60;23.83;;;15.60;99.90;;;;;;5037431;28;20045;-81
2023/06/22 04:20:39;;;;;;;30.92;27.60;;;15.70;99.90;;;;;;5040472;28;20103;-82
2023/06/22 04:23:04;;;;;;;28.98;25.95;;;15.80;99.90;;;;;;5035011;28;20060;-81
2023/06/22 04:25:30;;;;;;;27.25;24.55;;;15.90;99.90;;;;;;5038317;28;20041;-82
2023/06/22 04:27:55;;;;;;;24.48;22.17;;;16.00;99.90;;;;;;5024644;28;20076;-80
2023/06/22 04:30:21;;;;;;;25.10;22.67;;;16.00;99.90;;;;;;5038253;28;21377;-80
2023/06/22 04:32:57;;;;;;;25.63;22.95;;;16.20;99.90;;;;;;5038259;28;20318;-82
2023/06/22 04:35:23;;;;;;;24.67;22.25;;;16.40;99.90;;;;;;5040364;28;20041;-83
2023/06/22 04:37:49;;;;;;;24.20;21.77;;;16.70;99.90;;;;;;5033607;28;20057;-82
2023/06/22 04:40:15;;;;;;;23.77;21.50;;;17.20;99.90;;;;;;5035159;28;20056;-82
2023/06/22 04:42:52;;;;;;;23.80;21.42;;;17.50;99.90;;;;;;5033764;28;20430;-82
2023/06/22 04:45:20;;;;;;;23.17;21.00;;;17.50;99.90;;;;;;5035777;28;20037;-84
2023/06/22 04:47:46;;;;;;;23.15;20.85;;;17.60;99.90;;;;;;5039729;28;20041;-83
2023/06/22 04:50:12;;;;;;;20.83;19.02;;;18.00;99.90;;;;;;5044113;28;20510;-81
2023/06/22 04:52:39;;;;;;;21.60;19.40;;;18.50;99.90;;;;;;5046645;28;21036;-84
2023/06/22 04:55:05;;;;;;;21.13;19.05;;;19.10;99.90;;;;;;5040561;28;20593;-82
2023/06/22 04:57:34;;;;;;;20.13;18.30;;;19.70;99.90;;;;;;5038550;28;20840;-82
2023/06/22 05:00:11;;;;;;;20.50;18.70;;;20.30;99.90;;;;;;5023822;28;20140;-80
2023/06/22 05:02:41;;;;;;;19.75;17.92;;;20.50;99.90;;;;;;5040854;28;20522;-83
2023/06/22 05:05:07;;;;;;;18.08;16.50;;;20.90;99.90;;;;;;5041909;28;20091;-83
2023/06/22 05:07:33;;;;;;;19.10;17.40;;;21.40;99.90;;;;;;5044172;28;20086;-83
2023/06/22 05:10:00;;;;;;;18.65;16.85;;;21.60;99.90;;;;;;5042603;28;20116;-83
2023/06/22 05:12:25;;;;;;;18.38;16.77;;;21.70;99.90;;;;;;5042656;28;20085;-82
2023/06/22 05:14:51;;;;;;;18.33;16.55;;;21.40;99.90;;;;;;5046835;28;20514;-82
2023/06/22 05:17:19;;;;;;;18.70;17.10;;;21.10;99.90;;;;;;5040557;28;20123;-79
2023/06/22 05:19:48;;;;;;;18.90;17.13;;;21.00;99.90;;;;;;5040070;28;20109;-84
2023/06/22 05:22:14;;;;;;;18.60;16.92;;;21.60;99.90;;;;;;5044609;28;20040;-82
2023/06/22 05:24:40;;;;;;;17.67;16.17;;;21.90;99.90;;;;;;5046687;28;20126;-81
2023/06/22 05:27:06;;;;;;;19.40;17.55;;;22.00;99.90;;;;;;5047769;28;20483;-82
2023/06/22 05:29:31;;;;;;;19.88;17.98;;;21.90;99.90;;;;;;5047976;28;20037;-81
2023/06/22 05:31:57;;;;;;;18.30;16.48;;;21.80;99.90;;;;;;5045468;28;20060;-81
2023/06/22 05:34:22;;;;;;;21.27;19.17;;;21.70;99.90;;;;;;5045904;28;20049;-80
2023/06/22 05:36:48;;;;;;;21.00;18.90;;;21.60;99.90;;;;;;5048532;28;20045;-82
2023/06/22 05:39:14;;;;;;;20.10;18.33;;;21.30;99.90;;;;;;5047049;28;20488;-83
2023/06/22 05:41:40;;;;;;;20.77;18.65;;;21.10;99.90;;;;;;5045994;28;20068;-82
2023/06/22 05:44:06;;;;;;;20.33;18.52;;;21.10;99.90;;;;;;5052864;28;20087;-82
2023/06/22 05:46:32;;;;;;;19.98;18.02;;;21.20;99.90;;;;;;5045443;28;20562;-82
2023/06/22 05:48:57;;;;;;;19.05;17.10;;;21.30;99.90;;;;;;5051654;28;20044;-82
2023/06/22 05:51:23;;;;;;;19.50;17.60;;;21.30;99.90;;;;;;5043457;28;20056;-82
2023/06/22 05:53:49;;;;;;;17.30;15.75;;;21.30;99.90;;;;;;5046652;28;20051;-82
2023/06/22 05:56:18;;;;;;;18.27;16.55;;;21.50;99.90;;;;;;5046677;28;20049;-82
2023/06/22 05:58:45;;;;;;;17.90;16.25;;;21.80;99.90;;;;;;5044043;28;20128;-86
2023/06/22 06:01:11;;;;;;;17.35;15.82;;;21.90;99.90;;;;;;5042128;28;20095;-83
2023/06/22 06:03:40;;;;;;;18.30;16.67;;;22.10;99.90;;;;;;5043500;28;20094;-80
2023/06/22 06:06:07;;;;;;;20.38;18.38;;;22.20;99.90;;;;;;5042745;28;20055;-83
2023/06/22 06:08:32;;;;;;;19.23;17.42;;;22.10;99.90;;;;;;5043619;28;20044;-83
2023/06/22 06:10:58;;;;;;;19.13;17.52;;;21.80;99.90;;;;;;5041458;28;20056;-82
2023/06/22 06:13:24;;;;;;;18.83;17.00;;;21.70;99.90;;;;;;5045428;28;20775;-82
2023/06/22 06:15:51;;;;;;;20.17;17.70;;;21.60;99.90;;;;;;5044227;28;20055;-84
2023/06/22 06:18:17;;;;;;;18.15;16.35;;;21.60;99.90;;;;;;5026846;28;20064;-84
2023/06/22 06:21:40;;;;;;;20.83;16.38;;;21.80;99.90;;;;;;5045289;28;20042;-84
2023/06/22 06:24:30;;;;;;;19.70;16.52;;;21.90;99.90;;;;;;5046848;28;20041;-83
2023/06/22 06:27:37;;;;;;;17.50;15.98;;;22.20;99.90;;;;;;5041760;28;20048;-84
2023/06/22 06:30:07;;;;;;;18.45;16.60;;;22.40;99.90;;;;;;5034290;28;20059;-83
2023/06/22 06:32:39;;;;;;;18.23;16.33;;;22.50;99.90;;;;;;5033784;28;20124;-83
2023/06/22 06:35:11;;;;;;;17.88;15.80;;;22.50;99.90;;;;;;5002914;28;20037;-83
2023/06/22 06:37:42;;;;;;;17.13;15.40;;;22.40;99.90;;;;;;5019039;28;20051;-83
2023/06/22 06:40:10;;;;;;;15.20;13.90;;;22.50;99.90;;;;;;5019805;28;20044;-83
2023/06/22 06:43:36;;;;;;;15.98;14.32;;;22.70;99.90;;;;;;5022124;28;20049;-83
2023/06/22 06:46:05;;;;;;;15.02;12.68;;;22.80;99.90;;;;;;5024455;28;20044;-84
2023/06/22 06:48:50;;;;;;;13.20;12.10;;;22.70;99.90;;;;;;5028594;28;20670;-83
2023/06/22 06:51:15;;;;;;;14.15;12.88;;;22.70;99.90;;;;;;5026332;28;20037;-82
2023/06/22 06:53:41;;;;;;;14.95;13.55;;;22.50;99.90;;;;;;5033826;28;20057;-83
2023/06/22 06:56:33;;;;;;;13.93;12.48;;;22.40;99.90;;;;;;5018474;28;20036;-83
2023/06/22 06:59:42;;;;;;;15.25;12.55;;;22.70;99.90;;;;;;5017708;28;20044;-83
2023/06/22 07:02:21;;;;;;;14.20;12.55;;;22.70;99.90;;;;;;5021916;28;20033;-83
2023/06/22 07:04:52;;;;;;;11.40;10.20;;;22.70;99.90;;;;;;5037203;28;20067;-83
2023/06/22 07:07:17;;;;;;;9.88;8.88;;;22.80;99.90;;;;;;5016169;28;20075;-82
2023/06/22 07:09:43;;;;;;;9.43;8.43;;;22.80;99.90;;;;;;5031141;28;20113;-82
2023/06/22 07:12:09;;;;;;;12.07;8.07;;;23.20;99.90;;;;;;5018543;28;20041;-84
2023/06/22 07:14:35;;;;;;;7.70;6.93;;;22.90;99.90;;;;;;5033202;28;20102;-83
2023/06/22 07:17:01;;;;;;;8.95;8.05;;;22.90;99.90;;;;;;5016131;28;20045;-83
2023/06/22 07:19:27;;;;;;;7.05;6.28;;;22.90;99.90;;;;;;5028380;28;20048;-81
2023/06/22 07:21:54;;;;;;;6.82;5.80;;;22.90;99.90;;;;;;5031386;28;20041;-84
2023/06/22 07:24:24;;;;;;;5.57;5.05;;;23.00;99.90;;;;;;5031275;28;20785;-83
2023/06/22 07:27:03;;;;;;;7.80;5.35;;;23.00;99.90;;;;;;5029419;28;20523;-83
2023/06/22 07:32:38;;;;;;;6.82;6.22;;;23.20;99.90;;;;;;5028423;28;20052;-83
2023/06/22 07:35:04;;;;;;;6.10;5.60;;;23.20;99.90;;;;;;5032188;28;20044;-85
2023/06/22 07:37:30;;;;;;;5.53;5.13;;;23.20;99.90;;;;;;5029714;28;20185;-83
2023/06/22 07:39:59;;;;;;;7.50;6.38;;;23.60;99.90;;;;;;5032574;28;20063;-84
2023/06/22 07:42:25;;;;;;;8.10;6.75;;;24.00;99.90;;;;;;5034278;28;20052;-83
2023/06/22 07:44:51;;;;;;;7.25;6.55;;;23.90;99.90;;;;;;5033337;28;20049;-84
2023/06/22 07:47:19;;;;;;;7.53;6.57;;;23.80;99.90;;;;;;5015742;28;20071;-84
2023/06/22 07:49:46;;;;;;;8.50;5.90;;;23.70;99.90;;;;;;5032991;28;20167;-85
2023/06/22 07:52:12;;;;;;;6.10;5.60;;;23.70;99.90;;;;;;5034916;28;20500;-84
2023/06/22 07:54:38;;;;;;;7.38;6.50;;;23.80;99.90;;;;;;5035953;28;20134;-84
2023/06/22 07:57:06;;;;;;;6.93;6.20;;;24.10;99.90;;;;;;5032048;28;20044;-85
2023/06/22 07:59:32;;;;;;;9.13;7.30;;;24.30;99.90;;;;;;5031404;28;20047;-85
2023/06/22 08:01:57;;;;;;;8.65;5.80;;;24.70;99.90;;;;;;5014249;28;20044;-84
2023/06/22 08:04:23;;;;;;;6.00;5.30;;;24.70;99.90;;;;;;5028476;28;20060;-83
2023/06/22 08:06:49;;;;;;;6.95;4.93;;;24.80;99.90;;;;;;5029469;28;21908;-83
2023/06/22 08:09:15;;;;;;;6.78;5.60;;;25.00;99.90;;;;;;5032792;28;20044;-84
2023/06/22 08:11:40;;;;;;;8.35;6.95;;;25.10;99.90;;;;;;5035044;28;20091;-83
2023/06/22 08:14:06;;;;;;;5.47;4.95;;;25.00;99.90;;;;;;5033379;28;20072;-84
2023/06/22 08:16:31;;;;;;;5.70;5.13;;;24.80;99.90;;;;;;5015170;28;20045;-85
2023/06/22 08:18:57;;;;;;;7.55;5.93;;;25.10;99.90;;;;;;5031308;28;20135;-84
2023/06/22 08:21:23;;;;;;;5.97;5.32;;;25.30;99.90;;;;;;5029819;28;20069;-82
2023/06/22 08:23:48;;;;;;;6.72;5.88;;;25.60;99.90;;;;;;5032734;28;20044;-83
2023/06/22 08:26:15;;;;;;;9.90;6.40;;;25.50;99.90;;;;;;5030801;28;20156;-82
2023/06/22 08:28:40;;;;;;;6.85;5.93;;;25.50;99.90;;;;;;5028771;28;20191;-82
2023/06/22 08:31:06;;;;;;;7.38;5.63;;;25.60;99.90;;;;;;5031420;28;20049;-85
2023/06/22 08:33:32;;;;;;;7.28;6.57;;;25.80;99.90;;;;;;5029435;28;20045;-82
2023/06/22 08:35:58;;;;;;;8.57;6.55;;;25.30;99.90;;;;;;5027603;28;20041;-82
2023/06/22 08:38:24;;;;;;;8.82;6.35;;;25.50;99.90;;;;;;5031366;28;20041;-84
2023/06/22 08:40:50;;;;;;;7.72;6.60;;;25.30;99.90;;;;;;5031104;28;20199;-84
2023/06/22 08:43:15;;;;;;;8.40;6.65;;;25.30;99.90;;;;;;5028213;28;20068;-84
2023/06/22 08:45:41;;;;;;;7.43;6.63;;;25.30;99.90;;;;;;5029567;28;20068;-84
2023/06/22 08:48:06;;;;;;;6.45;5.85;;;25.30;99.90;;;;;;5031120;28;20041;-84
2023/06/22 08:50:32;;;;;;;7.57;6.72;;;25.30;99.90;;;;;;5030121;28;20049;-83
2023/06/22 08:52:57;;;;;;;8.75;6.47;;;25.30;99.90;;;;;;5030945;28;20045;-85
2023/06/22 08:55:23;;;;;;;7.72;5.90;;;25.40;99.90;;;;;;5033076;28;20126;-84
2023/06/22 08:57:49;;;;;;;6.13;5.18;;;25.30;99.90;;;;;;5016586;28;20498;-86
2023/06/22 09:00:17;;;;;;;7.22;5.55;;;25.40;99.90;;;;;;5029603;28;20037;-85
2023/06/22 09:02:43;;;;;;;5.90;5.05;;;25.50;99.90;;;;;;5030007;28;20120;-83
2023/06/22 09:05:09;;;;;;;8.20;5.65;;;25.80;99.90;;;;;;5032419;28;20040;-83
2023/06/22 09:07:34;;;;;;;7.72;6.05;;;25.30;99.90;;;;;;5028286;28;20037;-82
2023/06/22 09:10:00;;;;;;;9.85;5.93;;;25.60;99.90;;;;;;5029488;28;20071;-84
2023/06/22 09:12:27;;;;;;;6.00;5.40;;;25.90;99.90;;;;;;5013557;28;20045;-84
2023/06/22 09:14:53;;;;;;;7.03;4.97;;;25.90;99.90;;;;;;5031140;28;20068;-84
2023/06/22 09:17:19;;;;;;;6.80;6.13;;;26.00;99.90;;;;;;5043933;28;20048;-84
2023/06/22 09:19:44;;;;;;;6.93;6.20;;;26.10;99.90;;;;;;5027912;28;20044;-84
2023/06/22 09:22:10;;;;;;;13.52;6.70;;;26.30;99.90;;;;;;5029023;28;20091;-84
2023/06/22 09:24:36;;;;;;;8.57;5.60;;;26.40;99.90;;;;;;5031470;28;20068;-83
2023/06/22 09:27:01;;;;;;;9.75;6.30;;;26.30;99.90;;;;;;5025946;28;20032;-83
2023/06/22 09:29:27;;;;;;;6.18;5.55;;;26.40;99.90;;;;;;5030116;28;20052;-84
2023/06/22 09:31:56;;;;;;;7.15;6.50;;;26.40;99.90;;;;;;5015766;28;20144;-85
2023/06/22 09:34:21;;;;;;;7.32;5.65;;;26.30;99.90;;;;;;5018384;28;20036;-84
2023/06/22 09:37:12;;;;;;;6.13;5.53;;;26.10;99.90;;;;;;5035128;28;20037;-84
2023/06/22 09:40:18;;;;;;;10.30;6.15;;;26.40;99.90;;;;;;5022290;28;20047;-85
2023/06/22 09:42:49;;;;;;;8.20;6.43;;;26.20;99.90;;;;;;5021501;28;20049;-84
2023/06/22 09:48:31;;;;;;;6.75;5.93;;;26.30;99.90;;;;;;5038313;28;20124;-86
2023/06/22 09:51:00;;;;;;;7.10;6.50;;;26.20;99.90;;;;;;5050823;28;20040;-85
2023/06/22 09:53:51;;;;;;;9.75;6.40;;;26.50;99.90;;;;;;5033486;28;20045;-84
2023/06/22 09:56:45;;;;;;;7.45;6.70;;;26.60;99.90;;;;;;4990134;28;20037;-84
2023/06/22 09:59:23;;;;;;;7.97;5.93;;;26.60;99.90;;;;;;5001969;28;20519;-83
2023/06/22 10:02:18;;;;;;;7.63;6.30;;;26.80;99.90;;;;;;5037379;28;20492;-84
2023/06/22 10:05:19;;;;;;;6.47;5.75;;;26.80;99.90;;;;;;5036772;28;20035;-84
2023/06/22 10:08:09;;;;;;;6.22;5.72;;;26.40;99.90;;;;;;5037467;28;20065;-85
2023/06/22 10:10:35;;;;;;;6.60;6.00;;;26.30;99.90;;;;;;5040379;28;20503;-85
2023/06/22 10:13:08;;;;;;;7.07;6.25;;;26.20;99.90;;;;;;5035586;28;20045;-84
2023/06/22 10:16:28;;;;;;;6.65;5.95;;;26.20;99.90;;;;;;5043362;28;20076;-87
2023/06/22 10:19:33;;;;;;;7.57;5.63;;;26.10;99.90;;;;;;5010264;28;20051;-82
2023/06/22 10:21:59;;;;;;;13.23;6.25;;;26.40;99.90;;;;;;5027553;28;20037;-80
2023/06/22 10:24:24;;;;;;;5.88;5.35;;;26.40;99.90;;;;;;5029244;28;20055;-81
2023/06/22 10:26:50;;;;;;;7.65;6.47;;;26.60;99.90;;;;;;5033255;28;20033;-82
2023/06/22 10:29:16;;;;;;;7.43;6.72;;;26.40;99.90;;;;;;5028814;28;20041;-81
2023/06/22 10:31:41;;;;;;;6.93;6.20;;;26.40;99.90;;;;;;5028111;28;20091;-79
2023/06/22 10:34:07;;;;;;;6.55;5.95;;;26.50;99.90;;;;;;5028423;28;20159;-80
2023/06/22 10:36:32;;;;;;;6.93;6.32;;;26.50;99.90;;;;;;5043444;28;20136;-82
2023/06/22 10:38:59;;;;;;;8.95;6.18;;;26.60;99.90;;;;;;5041849;28;20049;-83
2023/06/22 10:41:25;;;;;;;12.70;6.10;;;26.50;99.90;;;;;;5025583;28;20092;-82
2023/06/22 10:43:50;;;;;;;8.05;5.90;;;26.80;99.90;;;;;;5044203;28;20075;-81
2023/06/22 10:46:16;;;;;;;7.40;5.90;;;26.80;99.90;;;;;;5039172;28;20044;-83
2023/06/22 10:48:41;;;;;;;9.10;6.03;;;26.90;99.90;;;;;;5041207;28;20048;-84
2023/06/22 10:51:07;;;;;;;6.97;6.20;;;26.60;99.90;;;;;;5044972;28;20384;-83
2023/06/22 10:53:32;;;;;;;6.78;6.03;;;26.50;99.90;;;;;;5048370;28;20041;-81
2023/06/22 10:55:58;;;;;;;7.53;5.32;;;26.60;99.90;;;;;;5024308;28;20060;-81
2023/06/22 10:58:24;;;;;;;7.35;4.93;;;26.50;99.90;;;;;;5042294;28;20044;-82
2023/06/22 11:00:49;;;;;;;8.73;4.82;;;26.70;99.90;;;;;;5044870;28;20038;-82
2023/06/22 11:03:15;;;;;;;12.18;5.90;;;26.40;99.90;;;;;;5041347;28;20044;-81
2023/06/22 11:05:41;;;;;;;7.53;6.60;;;26.00;99.90;;;;;;5042245;28;20044;-81
2023/06/22 11:08:07;;;;;;;9.82;6.40;;;25.90;99.90;;;;;;5044307;28;20516;-82
2023/06/22 11:10:32;;;;;;;5.40;4.85;;;25.90;99.90;;;;;;5038041;28;20045;-81
2023/06/22 11:12:58;;;;;;;5.38;4.55;;;26.00;99.90;;;;;;5029333;28;20134;-82
2023/06/22 11:15:25;;;;;;;6.60;5.40;;;25.90;99.90;;;;;;5028463;28;20053;-82
2023/06/22 11:17:50;;;;;;;5.68;4.70;;;26.10;99.90;;;;;;5015594;28;20048;-79
2023/06/22 11:20:16;;;;;;;5.75;5.15;;;26.00;99.90;;;;;;5026173;28;20048;-81
2023/06/22 11:22:42;;;;;;;5.10;4.03;;;26.00;99.90;;;;;;5028398;28;20037;-82
2023/06/22 11:25:08;;;;;;;7.93;4.47;;;26.10;99.90;;;;;;5024534;28;20041;-81
2023/06/22 11:27:34;;;;;;;10.38;4.72;;;26.00;99.90;;;;;;5010050;28;20053;-82
2023/06/22 11:30:00;;;;;;;5.68;5.18;;;26.10;99.90;;;;;;5028213;28;20064;-79
2023/06/22 11:32:26;;;;;;;5.00;4.15;;;26.00;99.90;;;;;;5033290;28;20128;-80
2023/06/22 11:34:51;;;;;;;5.15;4.63;;;26.00;99.90;;;;;;5039592;28;20139;-82
2023/06/22 11:37:17;;;;;;;6.40;4.57;;;26.00;99.90;;;;;;5029374;28;20045;-80
2023/06/22 11:39:43;;;;;;;6.05;4.25;;;25.90;99.90;;;;;;5026678;28;20045;-82
2023/06/22 11:42:09;;;;;;;4.97;4.47;;;25.90;99.90;;;;;;5030434;28;20052;-80
2023/06/22 11:44:35;;;;;;;6.38;4.85;;;26.00;99.90;;;;;;5027798;28;20036;-82
2023/06/22 11:47:03;;;;;;;5.03;4.47;;;25.90;99.90;;;;;;5026012;28;20040;-81
2023/06/22 11:49:29;;;;;;;5.22;3.90;;;26.00;99.90;;;;;;5030557;28;20048;-83
2023/06/22 11:51:54;;;;;;;4.28;3.90;;;26.00;99.90;;;;;;5024394;28;20164;-80
2023/06/22 11:54:20;;;;;;;4.20;3.85;;;26.00;99.90;;;;;;5026342;28;20048;-82
2023/06/22 11:56:45;;;;;;;4.53;3.88;;;26.00;99.90;;;;;;5028884;28;20130;-81
2023/06/22 11:59:11;;;;;;;7.45;4.30;;;25.80;99.90;;;;;;5026000;28;20079;-80
2023/06/22 12:01:37;;;;;;;5.60;4.50;;;25.80;99.90;;;;;;5027520;28;20566;-80
2023/06/22 12:04:05;;;;;;;6.47;4.40;;;25.70;99.90;;;;;;5024468;28;20188;-81
2023/06/22 12:06:32;;;;;;;4.53;4.05;;;25.60;99.90;;;;;;5025276;28;20116;-81
2023/06/22 12:08:57;;;;;;;4.70;4.07;;;25.60;99.90;;;;;;5027095;28;20084;-81
2023/06/22 12:11:23;;;;;;;3.75;3.25;;;25.60;99.90;;;;;;5027022;28;20053;-80
2023/06/22 12:13:49;;;;;;;7.10;3.90;;;25.50;99.90;;;;;;5027859;28;20049;-83
2023/06/22 12:16:14;;;;;;;4.60;4.20;;;25.60;99.90;;;;;;5026500;28;20137;-82
2023/06/22 12:18:40;;;;;;;9.07;3.92;;;25.70;99.90;;;;;;5026965;28;20049;-83
2023/06/22 12:21:05;;;;;;;7.85;4.35;;;25.70;99.90;;;;;;5026859;28;20479;-81
2023/06/22 12:23:31;;;;;;;5.40;4.45;;;25.80;99.90;;;;;;5042742;28;20079;-81
2023/06/22 12:25:57;;;;;;;5.72;3.90;;;25.80;99.90;;;;;;5024642;28;20087;-83
2023/06/22 12:28:23;;;;;;;6.95;4.10;;;25.70;99.90;;;;;;5026930;28;21041;-81
2023/06/22 12:30:49;;;;;;;6.85;4.13;;;25.80;99.90;;;;;;5028375;28;20045;-80
2023/06/22 12:33:14;;;;;;;7.13;4.18;;;25.80;99.90;;;;;;5030192;28;20053;-78
2023/06/22 12:35:40;;;;;;;7.15;4.38;;;25.80;99.90;;;;;;5030731;28;20053;-79
2023/06/22 12:38:08;;;;;;;5.30;3.85;;;25.90;99.90;;;;;;5027063;28;20045;-79
2023/06/22 12:40:33;;;;;;;4.55;3.25;;;25.80;99.90;;;;;;5027375;28;20045;-80
2023/06/22 12:42:59;;;;;;;3.85;3.53;;;25.90;99.90;;;;;;5027299;28;20064;-78
2023/06/22 12:45:28;;;;;;;3.83;3.42;;;25.80;99.90;;;;;;5023468;28;20080;-78
2023/06/22 12:47:54;;;;;;;8.98;4.45;;;25.90;99.90;;;;;;5026181;28;20051;-80
2023/06/22 12:50:20;;;;;;;7.10;4.38;;;25.80;99.90;;;;;;5024923;28;20487;-81